createdAt,value
2022-10-08T00:00:02.629Z,3.24
2022-10-08T00:05:26.467Z,3.48
2022-10-08T00:10:52.745Z,3.48
2022-10-08T00:16:16.009Z,3.74
2022-10-08T00:21:42.969Z,3.80
2022-10-08T00:27:09.167Z,3.40
2022-10-08T00:32:35.638Z,3.65
2022-10-08T00:38:02.970Z,3.75
2022-10-08T00:43:27.997Z,3.35
2022-10-08T00:48:58.866Z,3.67
2022-10-08T00:54:23.762Z,3.70
2022-10-08T00:59:48.850Z,4.17
2022-10-08T01:05:15.608Z,3.99
2022-10-08T01:10:44.788Z,3.98
2022-10-08T01:16:07.774Z,4.01
2022-10-08T01:21:41.194Z,3.97
2022-10-08T01:27:02.999Z,3.55
2022-10-08T01:32:33.889Z,3.82
2022-10-08T01:38:02.120Z,3.90
2022-10-08T01:43:26.436Z,3.95
2022-10-08T01:48:51.611Z,3.13
2022-10-08T01:54:17.825Z,3.76
2022-10-08T01:59:45.196Z,3.82
2022-10-08T02:05:12.223Z,3.65
2022-10-08T02:10:37.983Z,4.32
2022-10-08T02:16:04.549Z,4.74
2022-10-08T02:21:31.801Z,4.49
2022-10-08T02:26:58.634Z,4.64
2022-10-08T02:32:22.502Z,4.24
2022-10-08T02:37:48.133Z,4.45
2022-10-08T02:43:11.082Z,4.85
2022-10-08T02:48:37.134Z,4.43
2022-10-08T02:54:04.981Z,4.83
2022-10-08T02:59:32.278Z,4.55
2022-10-08T03:04:58.434Z,4.70
2022-10-08T03:10:21.333Z,4.44
2022-10-08T03:15:47.155Z,4.25
2022-10-08T03:21:13.262Z,4.25
2022-10-08T03:26:38.578Z,3.93
2022-10-08T03:32:05.075Z,4.35
2022-10-08T03:37:27.143Z,3.86
2022-10-08T03:42:51.338Z,3.46
2022-10-08T03:48:14.618Z,3.29
2022-10-08T03:53:41.378Z,3.33
2022-10-08T03:59:07.194Z,3.29
2022-10-08T04:04:34.552Z,3.73
2022-10-08T04:10:00.229Z,2.90
2022-10-08T04:15:29.235Z,3.05
2022-10-08T04:20:55.443Z,3.07
2022-10-08T04:26:18.773Z,3.22
2022-10-08T04:31:44.913Z,2.94
2022-10-08T04:37:10.428Z,3.30
2022-10-08T04:42:37.704Z,3.56
2022-10-08T04:48:01.521Z,3.62
2022-10-08T04:53:26.819Z,3.55
2022-10-08T04:58:48.236Z,4.24
2022-10-08T05:04:10.809Z,3.78
2022-10-08T05:09:33.842Z,3.47
2022-10-08T05:15:00.793Z,3.56
2022-10-08T05:20:26.606Z,3.93
2022-10-08T05:25:50.702Z,3.80
2022-10-08T05:31:14.854Z,3.83
2022-10-08T05:36:42.227Z,3.62
2022-10-08T05:42:09.094Z,3.71
2022-10-08T05:53:15.139Z,3.01
2022-10-08T05:58:41.904Z,3.09
2022-10-08T06:04:08.507Z,2.72
2022-10-08T06:09:30.882Z,3.13
2022-10-08T06:14:56.535Z,3.16
2022-10-08T06:20:23.144Z,2.47
2022-10-08T06:25:50.429Z,2.96
2022-10-08T06:31:17.530Z,2.46
2022-10-08T06:36:42.327Z,2.96
2022-10-08T06:42:06.906Z,2.98
2022-10-08T06:47:34.432Z,3.02
2022-10-08T06:52:56.085Z,2.96
2022-10-08T06:58:21.577Z,3.13
2022-10-08T07:03:42.935Z,3.18
2022-10-08T07:09:05.903Z,2.95
2022-10-08T07:14:30.694Z,3.28
2022-10-08T07:19:51.948Z,3.57
2022-10-08T07:25:13.534Z,3.43
2022-10-08T07:30:35.520Z,3.66
2022-10-08T07:36:01.813Z,3.78
2022-10-08T07:41:27.446Z,3.27
2022-10-08T07:46:55.632Z,3.21
2022-10-08T07:52:17.012Z,2.86
2022-10-08T07:57:40.326Z,3.11
2022-10-08T08:03:07.707Z,2.88
2022-10-08T08:08:40.557Z,2.68
2022-10-08T08:14:06.642Z,2.24
2022-10-08T08:19:33.649Z,2.40
2022-10-08T08:25:00.050Z,1.92
2022-10-08T08:30:28.057Z,2.31
2022-10-08T08:35:57.007Z,2.74
2022-10-08T08:41:23.205Z,2.17
2022-10-08T08:47:00.148Z,2.06
2022-10-08T08:52:23.359Z,1.85
2022-10-08T08:57:51.386Z,0.99
2022-10-08T09:03:17.911Z,0.95
2022-10-08T09:08:45.835Z,1.02
2022-10-08T09:14:11.223Z,0.67
2022-10-08T09:19:43.238Z,0.83
2022-10-08T09:25:11.452Z,0.84
2022-10-08T09:31:08.987Z,0.96
2022-10-08T09:36:43.819Z,1.71
2022-10-08T09:42:10.182Z,0.71
2022-10-08T09:48:03.144Z,1.02
2022-10-08T09:53:51.085Z,0.96
2022-10-08T09:59:23.729Z,1.02
2022-10-08T10:04:58.905Z,0.95
2022-10-08T10:10:23.670Z,0.79
2022-10-08T10:15:47.901Z,0.84
2022-10-08T10:21:12.316Z,0.84
2022-10-08T10:26:39.041Z,0.72
2022-10-08T10:32:04.649Z,1.04
2022-10-08T10:37:32.741Z,0.83
2022-10-08T10:42:55.627Z,0.67
2022-10-08T10:48:23.876Z,0.80
2022-10-08T10:53:49.814Z,0.70
2022-10-08T10:59:19.233Z,0.43
2022-10-08T11:05:02.769Z,0.53
2022-10-08T11:10:30.343Z,0.62
2022-10-08T11:16:03.873Z,0.73
2022-10-08T11:21:33.476Z,0.89
2022-10-08T11:26:58.919Z,0.78
2022-10-08T11:32:24.920Z,0.79
2022-10-08T11:37:48.823Z,0.66
2022-10-08T11:43:14.933Z,0.53
2022-10-08T11:48:41.915Z,0.80
2022-10-08T11:54:05.071Z,0.71
2022-10-08T11:59:35.352Z,0.78
2022-10-08T12:05:02.999Z,0.87
2022-10-08T12:10:44.990Z,0.72
2022-10-08T12:16:12.654Z,0.76
2022-10-08T12:21:36.831Z,0.58
2022-10-08T12:27:12.337Z,0.71
2022-10-08T12:33:01.942Z,0.80
2022-10-08T12:38:28.979Z,0.69
2022-10-08T12:43:56.685Z,1.02
2022-10-08T12:49:18.732Z,0.72
2022-10-08T12:54:44.812Z,0.79
2022-10-08T13:00:12.898Z,0.74
2022-10-08T13:05:43.375Z,0.62
2022-10-08T13:11:05.720Z,0.61
2022-10-08T13:16:27.828Z,0.77
2022-10-08T13:22:01.811Z,0.61
2022-10-08T13:27:39.965Z,0.95
2022-10-08T13:33:05.939Z,0.64
2022-10-08T13:38:36.864Z,0.45
2022-10-08T13:44:01.713Z,0.87
2022-10-08T13:49:30.323Z,0.85
2022-10-08T13:54:57.047Z,0.66
2022-10-08T14:00:22.992Z,1.18
2022-10-08T14:05:45.826Z,1.02
2022-10-08T14:11:10.183Z,1.36
2022-10-08T14:16:36.980Z,1.14
2022-10-08T14:22:03.238Z,1.04
2022-10-08T14:27:30.997Z,1.05
2022-10-08T14:32:56.110Z,0.73
2022-10-08T14:38:22.615Z,0.77
2022-10-08T14:43:48.772Z,1.48
2022-10-08T14:49:15.215Z,0.94
2022-10-08T14:54:39.775Z,1.53
2022-10-08T15:00:08.234Z,0.58
2022-10-08T15:05:31.780Z,1.01
2022-10-08T15:10:58.721Z,0.89
2022-10-08T15:16:25.806Z,0.72
2022-10-08T15:21:51.970Z,1.09
2022-10-08T15:27:19.850Z,0.81
2022-10-08T15:32:54.525Z,0.73
2022-10-08T15:38:19.194Z,0.88
2022-10-08T15:43:46.904Z,0.71
2022-10-08T15:49:08.562Z,1.19
2022-10-08T15:54:35.298Z,0.81
2022-10-08T15:59:59.608Z,0.89
2022-10-08T16:05:25.082Z,1.41
2022-10-08T16:10:46.799Z,0.92
2022-10-08T16:16:15.175Z,1.02
2022-10-08T16:21:38.522Z,0.79
2022-10-08T16:27:03.222Z,0.74
2022-10-08T16:32:31.118Z,0.98
2022-10-08T16:37:58.101Z,1.09
2022-10-08T16:43:24.615Z,1.05
2022-10-08T16:48:50.402Z,1.05
2022-10-08T16:54:15.601Z,1.28
2022-10-08T16:59:38.784Z,1.65
2022-10-08T17:05:06.879Z,2.02
2022-10-08T17:10:28.662Z,1.70
2022-10-08T17:15:55.768Z,1.94
2022-10-08T17:21:17.769Z,2.37
2022-10-08T17:26:43.197Z,1.67
2022-10-08T17:32:07.676Z,1.63
2022-10-08T17:37:31.448Z,2.27
2022-10-08T17:42:59.241Z,1.87
2022-10-08T17:48:54.626Z,2.22
2022-10-08T17:54:17.353Z,2.19
2022-10-08T17:59:49.756Z,2.25
2022-10-08T18:05:20.686Z,1.92
2022-10-08T18:10:46.009Z,1.95
2022-10-08T18:16:09.510Z,2.26
2022-10-08T18:21:31.064Z,2.13
2022-10-08T18:26:52.967Z,1.94
2022-10-08T18:32:16.038Z,2.02
2022-10-08T18:37:42.707Z,2.15
2022-10-08T18:43:06.642Z,1.92
2022-10-08T18:48:48.270Z,2.10
2022-10-08T18:54:09.152Z,1.82
2022-10-08T18:59:35.558Z,1.83
2022-10-08T19:04:57.132Z,2.26
2022-10-08T19:10:23.315Z,2.10
2022-10-08T19:15:49.929Z,1.98
2022-10-08T19:21:13.939Z,2.05
2022-10-08T19:26:39.379Z,1.94
2022-10-08T19:32:01.736Z,2.26
2022-10-08T19:37:23.241Z,4.61
2022-10-08T19:42:46.854Z,4.57
2022-10-08T19:48:11.646Z,3.44
2022-10-08T19:53:36.058Z,3.52
2022-10-08T19:59:02.350Z,2.20
2022-10-08T20:04:28.404Z,2.11
2022-10-08T20:09:50.596Z,2.82
2022-10-08T20:15:13.856Z,2.60
2022-10-08T20:20:39.902Z,2.21
2022-10-08T20:26:03.488Z,2.11
2022-10-08T20:31:34.290Z,1.67
2022-10-08T20:36:58.213Z,1.89
2022-10-08T20:42:23.879Z,1.97
2022-10-08T20:47:47.637Z,1.78
2022-10-08T20:53:12.035Z,1.58
2022-10-08T20:58:37.653Z,1.93
2022-10-08T21:04:01.811Z,1.95
2022-10-08T21:09:28.860Z,2.21
2022-10-08T21:14:54.696Z,1.93
2022-10-08T21:20:21.045Z,1.94
2022-10-08T21:25:43.684Z,1.96
2022-10-08T21:31:06.169Z,1.88
2022-10-08T21:36:30.439Z,1.73
2022-10-08T21:41:56.302Z,2.05
2022-10-08T21:47:20.707Z,2.21
2022-10-08T21:52:48.699Z,2.35
2022-10-08T21:58:14.405Z,2.29
2022-10-08T22:03:38.554Z,2.54
2022-10-08T22:09:05.144Z,1.87
2022-10-08T22:14:29.734Z,2.75
2022-10-08T22:19:57.316Z,1.80
2022-10-08T22:25:20.572Z,2.42
2022-10-08T22:30:41.751Z,2.25
2022-10-08T22:36:02.799Z,2.43
2022-10-08T22:41:24.459Z,2.19
2022-10-08T22:46:46.836Z,2.43
2022-10-08T22:52:13.138Z,2.83
2022-10-08T22:57:36.150Z,2.84
2022-10-08T23:02:57.037Z,2.71
2022-10-08T23:08:19.405Z,2.39
2022-10-08T23:13:45.261Z,2.69
2022-10-08T23:19:12.170Z,2.47
2022-10-08T23:24:35.401Z,2.67
2022-10-08T23:29:57.324Z,2.30
2022-10-08T23:35:25.925Z,2.52
2022-10-08T23:40:51.106Z,2.41
2022-10-08T23:46:17.929Z,2.17
2022-10-08T23:51:41.153Z,2.17
2022-10-08T23:57:07.455Z,2.03
